createdAt,value
2016-10-24T00:00:16.200Z,963.06
2016-10-24T00:01:16.165Z,963.09
2016-10-24T00:02:16.125Z,963.22
2016-10-24T00:03:16.086Z,963.26
2016-10-24T00:04:16.049Z,963.27
2016-10-24T00:05:16.013Z,963.3
2016-10-24T00:06:15.981Z,963.33
2016-10-24T00:07:15.936Z,963.41
2016-10-24T00:08:15.901Z,963.38
2016-10-24T00:09:15.864Z,963.37
2016-10-24T00:10:15.826Z,963.38
2016-10-24T00:11:15.789Z,963.39
2016-10-24T00:12:15.751Z,963.38
2016-10-24T00:13:15.714Z,963.34
2016-10-24T00:14:15.676Z,963.42
2016-10-24T00:15:15.642Z,963.47
2016-10-24T00:16:15.602Z,963.41
2016-10-24T00:17:15.564Z,963.4
2016-10-24T00:18:15.526Z,963.46
2016-10-24T00:19:15.489Z,963.47
2016-10-24T00:20:15.452Z,963.5
2016-10-24T00:21:15.413Z,963.49
2016-10-24T00:22:15.377Z,963.51
2016-10-24T00:23:15.339Z,963.45
2016-10-24T00:24:15.301Z,963.44
2016-10-24T00:25:15.263Z,963.43
2016-10-24T00:26:15.231Z,963.43
2016-10-24T00:27:15.189Z,963.41
2016-10-24T00:28:15.153Z,963.43
2016-10-24T00:29:15.115Z,963.38
2016-10-24T00:30:15.080Z,963.36
2016-10-24T00:31:15.044Z,963.42
2016-10-24T00:32:15.002Z,963.41
2016-10-24T00:33:14.965Z,963.4
2016-10-24T00:34:14.929Z,963.33
2016-10-24T00:35:14.891Z,963.27
2016-10-24T00:36:14.857Z,963.33
2016-10-24T00:37:14.816Z,963.4
2016-10-24T00:38:14.780Z,963.33
2016-10-24T00:39:14.742Z,963.25
2016-10-24T00:40:14.704Z,963.28
2016-10-24T00:41:14.668Z,963.31
2016-10-24T00:42:14.629Z,963.29
2016-10-24T00:43:14.593Z,963.35
2016-10-24T00:44:14.556Z,963.4
2016-10-24T00:45:14.517Z,963.33
2016-10-24T00:46:14.481Z,963.33
2016-10-24T00:47:14.443Z,963.35
2016-10-24T00:48:14.407Z,963.4
2016-10-24T00:49:14.370Z,963.43
2016-10-24T00:50:14.333Z,963.53
2016-10-24T00:51:14.294Z,963.51
2016-10-24T00:52:14.257Z,963.49
2016-10-24T00:53:14.219Z,963.5
2016-10-24T00:54:14.182Z,963.56
2016-10-24T00:55:14.143Z,963.5
2016-10-24T00:56:14.106Z,963.47
2016-10-24T00:57:14.070Z,963.46
2016-10-24T00:58:14.031Z,963.5
2016-10-24T00:59:13.995Z,963.56
2016-10-24T01:00:13.956Z,963.53
2016-10-24T01:01:13.920Z,963.5
2016-10-24T01:02:13.882Z,963.51
2016-10-24T01:03:13.845Z,963.5
2016-10-24T01:04:13.807Z,963.42
2016-10-24T01:05:13.770Z,963.41
2016-10-24T01:06:13.733Z,963.32
2016-10-24T01:07:13.695Z,963.33
2016-10-24T01:08:13.658Z,963.29
2016-10-24T01:09:13.620Z,963.32
2016-10-24T01:10:13.582Z,963.28
2016-10-24T01:11:13.546Z,963.25
2016-10-24T01:12:13.508Z,963.16
2016-10-24T01:13:13.469Z,963.22
2016-10-24T01:14:13.433Z,963.26
2016-10-24T01:15:13.394Z,963.29
2016-10-24T01:16:13.356Z,963.31
2016-10-24T01:17:13.324Z,963.35
2016-10-24T01:18:13.283Z,963.35
2016-10-24T01:19:13.245Z,963.32
2016-10-24T01:20:13.206Z,963.32
2016-10-24T01:21:13.170Z,963.3
2016-10-24T01:22:13.132Z,963.36
2016-10-24T01:23:13.094Z,963.34
2016-10-24T01:24:13.057Z,963.33
2016-10-24T01:25:13.019Z,963.32
2016-10-24T01:26:12.983Z,963.37
2016-10-24T01:27:12.945Z,963.33
2016-10-24T01:28:12.907Z,963.32
2016-10-24T01:29:12.870Z,963.32
2016-10-24T01:30:12.832Z,963.37
2016-10-24T01:31:12.793Z,963.36
2016-10-24T01:32:12.755Z,963.42
2016-10-24T01:33:12.720Z,963.44
2016-10-24T01:34:12.680Z,963.41
2016-10-24T01:35:12.643Z,963.42
2016-10-24T01:36:12.605Z,963.37
2016-10-24T01:37:12.568Z,963.35
2016-10-24T01:38:12.529Z,963.47
2016-10-24T01:39:12.492Z,963.53
2016-10-24T01:40:12.457Z,963.51
2016-10-24T01:41:12.418Z,963.47
2016-10-24T01:42:12.381Z,963.46
2016-10-24T01:43:12.342Z,963.39
2016-10-24T01:44:12.305Z,963.32
2016-10-24T01:45:12.267Z,963.33
2016-10-24T01:46:12.229Z,963.34
2016-10-24T01:47:12.193Z,963.32
2016-10-24T01:48:12.155Z,963.34
2016-10-24T01:49:12.116Z,963.36
2016-10-24T01:50:12.080Z,963.38
2016-10-24T01:51:12.047Z,963.35
2016-10-24T01:52:12.008Z,963.39
2016-10-24T01:53:11.966Z,963.39
2016-10-24T01:54:11.929Z,963.43
2016-10-24T01:55:11.892Z,963.43
2016-10-24T01:56:11.854Z,963.43
2016-10-24T01:57:11.815Z,963.41
2016-10-24T01:58:11.779Z,963.45
2016-10-24T01:59:11.741Z,963.45
2016-10-24T02:00:11.704Z,963.46
2016-10-24T02:01:11.667Z,963.46
2016-10-24T02:02:11.629Z,963.46
2016-10-24T02:03:11.593Z,963.46
2016-10-24T02:04:11.554Z,963.47
2016-10-24T02:05:11.518Z,963.41
2016-10-24T02:06:11.480Z,963.41
2016-10-24T02:07:11.440Z,963.36
2016-10-24T02:08:11.403Z,963.4
2016-10-24T02:09:11.368Z,963.41
2016-10-24T02:10:11.332Z,963.4
2016-10-24T02:11:11.291Z,963.42
2016-10-24T02:12:11.255Z,963.4
2016-10-24T02:13:11.217Z,963.35
2016-10-24T02:14:11.180Z,963.35
2016-10-24T02:15:11.141Z,963.35
2016-10-24T02:16:11.106Z,963.38
2016-10-24T02:17:11.068Z,963.41
2016-10-24T02:18:11.029Z,963.41
2016-10-24T02:19:10.991Z,963.41
2016-10-24T02:20:10.955Z,963.4
2016-10-24T02:21:10.916Z,963.31
2016-10-24T02:22:10.881Z,963.31
2016-10-24T02:23:10.842Z,963.31
2016-10-24T02:24:10.805Z,963.3
2016-10-24T02:25:10.767Z,963.26
2016-10-24T02:26:10.729Z,963.3
2016-10-24T02:27:10.692Z,963.34
2016-10-24T02:28:10.656Z,963.34
2016-10-24T02:29:10.617Z,963.31
2016-10-24T02:30:10.583Z,963.31
2016-10-24T02:31:10.543Z,963.38
2016-10-24T02:32:10.507Z,963.37
2016-10-24T02:33:10.468Z,963.39
2016-10-24T02:34:10.430Z,963.35
2016-10-24T02:35:10.392Z,963.29
2016-10-24T02:36:10.355Z,963.28
2016-10-24T02:37:10.317Z,963.24
2016-10-24T02:38:10.282Z,963.3
2016-10-24T02:39:10.254Z,963.3
2016-10-24T02:40:10.207Z,963.31
2016-10-24T02:41:10.168Z,963.38
2016-10-24T02:42:10.130Z,963.36
2016-10-24T02:43:10.095Z,963.34
2016-10-24T02:44:10.056Z,963.33
2016-10-24T02:45:10.018Z,963.37
2016-10-24T02:46:09.980Z,963.42
2016-10-24T02:47:09.944Z,963.42
2016-10-24T02:48:09.908Z,963.4
2016-10-24T02:49:09.868Z,963.4
2016-10-24T02:50:09.830Z,963.41
2016-10-24T02:51:09.793Z,963.44
2016-10-24T02:52:09.755Z,963.46
2016-10-24T02:53:09.722Z,963.51
2016-10-24T02:54:09.680Z,963.49
2016-10-24T02:55:09.642Z,963.43
2016-10-24T02:56:09.604Z,963.39
2016-10-24T02:57:09.569Z,963.37
2016-10-24T02:58:09.530Z,963.4
2016-10-24T02:59:09.493Z,963.42
2016-10-24T03:00:09.455Z,963.44
2016-10-24T03:01:09.419Z,963.38
2016-10-24T03:02:09.381Z,963.4
2016-10-24T03:03:09.342Z,963.36
2016-10-24T03:04:09.307Z,963.4
2016-10-24T03:05:09.269Z,963.38
2016-10-24T03:06:09.230Z,963.43
2016-10-24T03:07:09.193Z,963.4
2016-10-24T03:08:09.155Z,963.39
2016-10-24T03:09:09.117Z,963.37
2016-10-24T03:10:09.079Z,963.33
2016-10-24T03:11:09.043Z,963.27
2016-10-24T03:12:09.004Z,963.27
2016-10-24T03:13:08.967Z,963.27
2016-10-24T03:14:08.930Z,963.26
2016-10-24T03:15:08.892Z,963.26
2016-10-24T03:16:08.860Z,963.17
2016-10-24T03:17:08.817Z,963.21
2016-10-24T03:18:08.779Z,963.2
2016-10-24T03:19:08.741Z,963.2
2016-10-24T03:20:08.702Z,963.2
2016-10-24T03:21:08.667Z,963.22
2016-10-24T03:22:08.630Z,963.24
2016-10-24T03:23:08.590Z,963.26
2016-10-24T03:24:08.551Z,963.27
2016-10-24T03:25:08.515Z,963.2
2016-10-24T03:26:08.478Z,963.23
2016-10-24T03:27:08.439Z,963.19
2016-10-24T03:28:08.402Z,963.21
2016-10-24T03:29:08.363Z,963.2
2016-10-24T03:30:08.326Z,963.16
2016-10-24T03:31:08.287Z,963.19
2016-10-24T03:32:08.254Z,963.17
2016-10-24T03:33:08.213Z,963.22
2016-10-24T03:34:08.175Z,963.19
2016-10-24T03:35:08.138Z,963.17
2016-10-24T03:36:08.099Z,963.15
2016-10-24T03:37:08.061Z,963.12
2016-10-24T03:38:08.023Z,963.09
2016-10-24T03:39:07.986Z,963.02
2016-10-24T03:40:07.948Z,963.06
2016-10-24T03:41:07.911Z,963.04
2016-10-24T03:42:07.872Z,962.99
2016-10-24T03:43:07.835Z,963
2016-10-24T03:44:07.796Z,963.03
2016-10-24T03:45:07.759Z,963.04
2016-10-24T03:46:07.725Z,963.01
2016-10-24T03:47:07.682Z,962.98
2016-10-24T03:48:07.644Z,962.98
2016-10-24T03:49:07.608Z,962.99
2016-10-24T03:50:07.568Z,963
2016-10-24T03:51:07.531Z,963.01
2016-10-24T03:52:07.494Z,963.03
2016-10-24T03:53:07.453Z,963.07
2016-10-24T03:54:07.417Z,963.04
2016-10-24T03:55:07.383Z,963.04
2016-10-24T03:56:07.341Z,963.03
2016-10-24T03:57:07.303Z,963.04
2016-10-24T03:58:07.263Z,963.04
2016-10-24T03:59:07.225Z,963.07
2016-10-24T04:00:07.188Z,963.08
2016-10-24T04:01:07.148Z,963.06
2016-10-24T04:02:07.111Z,963.05
2016-10-24T04:03:07.073Z,963.06
2016-10-24T04:04:07.034Z,963.01
2016-10-24T04:05:06.998Z,962.94
2016-10-24T04:06:06.959Z,962.89
2016-10-24T04:07:06.921Z,962.88
2016-10-24T04:08:06.883Z,962.89
2016-10-24T04:09:06.842Z,962.9
2016-10-24T04:10:06.807Z,962.88
2016-10-24T04:11:06.769Z,962.9
2016-10-24T04:12:06.729Z,962.93
2016-10-24T04:13:06.692Z,962.94
2016-10-24T04:14:06.654Z,962.95
2016-10-24T04:15:06.615Z,962.99
2016-10-24T04:16:06.595Z,962.97
2016-10-24T04:17:06.538Z,962.99
2016-10-24T04:18:06.501Z,962.99
2016-10-24T04:19:06.462Z,962.95
2016-10-24T04:20:06.426Z,962.93
2016-10-24T04:21:06.388Z,962.93
2016-10-24T04:22:06.347Z,962.94
2016-10-24T04:23:06.309Z,962.95
2016-10-24T04:24:06.270Z,962.96
2016-10-24T04:25:06.232Z,962.97
2016-10-24T04:26:06.194Z,962.93
2016-10-24T04:27:06.155Z,962.94
2016-10-24T04:28:06.118Z,962.99
2016-10-24T04:29:06.081Z,962.99
2016-10-24T04:30:06.040Z,963.03
2016-10-24T04:31:06.006Z,963.01
2016-10-24T04:32:05.965Z,962.99
2016-10-24T04:33:05.928Z,963.07
2016-10-24T04:34:05.891Z,963.02
2016-10-24T04:35:05.853Z,963.06
2016-10-24T04:36:05.814Z,963.04
2016-10-24T04:37:05.777Z,963.01
2016-10-24T04:38:05.736Z,963
2016-10-24T04:39:05.701Z,962.98
2016-10-24T04:40:05.662Z,962.95
2016-10-24T04:41:05.623Z,962.94
2016-10-24T04:42:05.584Z,962.96
2016-10-24T04:43:05.546Z,962.95
2016-10-24T04:44:05.508Z,962.94
2016-10-24T04:45:05.471Z,962.93
2016-10-24T04:46:05.431Z,962.96
2016-10-24T04:47:05.394Z,963.01
2016-10-24T04:48:05.355Z,962.98
2016-10-24T04:49:05.316Z,962.97
2016-10-24T04:50:05.280Z,962.95
2016-10-24T04:51:05.241Z,962.98
2016-10-24T04:52:05.202Z,962.99
2016-10-24T04:53:05.164Z,962.97
2016-10-24T04:54:05.126Z,963.03
2016-10-24T04:55:05.087Z,963.05
2016-10-24T04:56:05.048Z,963.05
2016-10-24T04:57:05.009Z,962.98
2016-10-24T04:58:04.975Z,962.97
2016-10-24T04:59:04.934Z,962.96
2016-10-24T05:00:04.897Z,962.95
2016-10-24T05:01:04.857Z,962.99
2016-10-24T05:02:04.820Z,962.91
2016-10-24T05:03:04.782Z,962.91
2016-10-24T05:04:04.743Z,962.87
2016-10-24T05:05:04.705Z,962.87
2016-10-24T05:06:04.666Z,962.93
2016-10-24T05:07:04.627Z,962.89
2016-10-24T05:08:04.589Z,962.91
2016-10-24T05:09:04.551Z,962.93
2016-10-24T05:10:04.512Z,962.9
2016-10-24T05:11:04.474Z,962.91
2016-10-24T05:12:04.437Z,962.95
2016-10-24T05:13:04.404Z,962.96
2016-10-24T05:14:04.362Z,962.99
2016-10-24T05:15:04.323Z,963.01
2016-10-24T05:16:04.286Z,963.09
2016-10-24T05:17:04.246Z,963.07
2016-10-24T05:18:04.208Z,963.04
2016-10-24T05:19:04.169Z,963.04
2016-10-24T05:20:04.133Z,963.02
2016-10-24T05:21:04.092Z,963.01
2016-10-24T05:22:04.054Z,962.97
2016-10-24T05:23:04.016Z,962.95
2016-10-24T05:24:03.979Z,962.89
2016-10-24T05:25:03.939Z,962.95
2016-10-24T05:26:03.902Z,962.92
2016-10-24T05:27:03.863Z,962.89
2016-10-24T05:28:03.823Z,962.92
2016-10-24T05:29:03.785Z,962.89
2016-10-24T05:30:03.749Z,962.84
2016-10-24T05:31:03.712Z,962.82
2016-10-24T05:32:03.671Z,962.81
2016-10-24T05:33:03.634Z,962.78
2016-10-24T05:34:03.595Z,962.82
2016-10-24T05:35:03.565Z,962.78
2016-10-24T05:36:03.519Z,962.8
2016-10-24T05:37:03.480Z,962.76
2016-10-24T05:38:03.441Z,962.74
2016-10-24T05:39:03.402Z,962.8
2016-10-24T05:40:03.364Z,962.83
2016-10-24T05:41:03.326Z,962.81
2016-10-24T05:42:03.288Z,962.82
2016-10-24T05:43:03.250Z,962.84
2016-10-24T05:44:03.212Z,962.81
2016-10-24T05:45:03.176Z,962.82
2016-10-24T05:46:03.134Z,962.89
2016-10-24T05:47:03.098Z,962.95
2016-10-24T05:48:03.056Z,962.95
2016-10-24T05:49:03.019Z,962.9
2016-10-24T05:50:02.981Z,962.84
2016-10-24T05:51:02.941Z,962.79
2016-10-24T05:52:02.902Z,962.79
2016-10-24T05:53:02.866Z,962.85
2016-10-24T05:54:02.825Z,962.85
2016-10-24T05:55:02.789Z,962.91
2016-10-24T05:56:02.749Z,962.9
2016-10-24T05:57:02.710Z,962.94
2016-10-24T05:58:02.672Z,962.93
2016-10-24T05:59:02.633Z,962.9
2016-10-24T06:00:02.596Z,962.86
2016-10-24T06:01:02.556Z,962.89
2016-10-24T06:02:02.518Z,963.01
2016-10-24T06:03:02.479Z,963.02
2016-10-24T06:04:02.441Z,963.05
2016-10-24T06:05:02.401Z,963.14
2016-10-24T06:06:02.362Z,963.12
2016-10-24T06:07:02.325Z,963.16
2016-10-24T06:08:02.286Z,963.18
2016-10-24T06:09:02.248Z,963.17
2016-10-24T06:10:02.209Z,963.2
2016-10-24T06:11:02.171Z,963.16
2016-10-24T06:12:02.133Z,963.24
2016-10-24T06:13:02.094Z,963.19
2016-10-24T06:14:02.056Z,963.24
2016-10-24T06:15:02.019Z,963.22
2016-10-24T06:16:01.977Z,963.22
2016-10-24T06:17:01.939Z,963.2
2016-10-24T06:18:01.902Z,963.19
2016-10-24T06:19:01.862Z,963.23
2016-10-24T06:20:01.824Z,963.24
2016-10-24T06:21:01.786Z,963.27
2016-10-24T06:22:01.749Z,963.29
2016-10-24T06:23:01.711Z,963.25
2016-10-24T06:24:01.671Z,963.23
2016-10-24T06:25:01.632Z,963.25
2016-10-24T06:26:01.597Z,963.27
2016-10-24T06:27:01.555Z,963.29
2016-10-24T06:28:01.519Z,963.3
2016-10-24T06:29:01.479Z,963.31
2016-10-24T06:30:01.440Z,963.3
2016-10-24T06:31:01.401Z,963.33
2016-10-24T06:32:01.365Z,963.34
2016-10-24T06:33:01.326Z,963.41
2016-10-24T06:34:01.286Z,963.44
2016-10-24T06:35:01.249Z,963.4
2016-10-24T06:36:01.218Z,963.4
2016-10-24T06:37:01.173Z,963.47
2016-10-24T06:38:01.135Z,963.44
2016-10-24T06:39:01.097Z,963.46
2016-10-24T06:40:01.059Z,963.5
2016-10-24T06:41:01.020Z,963.52
2016-10-24T06:42:00.983Z,963.51
2016-10-24T06:43:00.944Z,963.54
2016-10-24T06:44:00.906Z,963.57
2016-10-24T06:45:00.868Z,963.59
2016-10-24T06:46:00.833Z,963.65
2016-10-24T06:47:00.793Z,963.7
2016-10-24T06:48:00.755Z,963.73
2016-10-24T06:49:00.716Z,963.69
2016-10-24T06:50:00.678Z,963.65
2016-10-24T06:51:00.642Z,963.67
2016-10-24T06:52:00.602Z,963.71
2016-10-24T06:53:00.564Z,963.79
2016-10-24T06:54:00.527Z,963.75
2016-10-24T06:55:00.492Z,963.81
2016-10-24T06:56:00.466Z,963.83
2016-10-24T06:57:00.413Z,963.83
2016-10-24T06:58:00.376Z,963.79
2016-10-24T06:59:00.338Z,963.77
2016-10-24T07:00:00.300Z,963.82
2016-10-24T07:01:00.264Z,963.76
2016-10-24T07:02:00.226Z,963.72
2016-10-24T07:03:00.190Z,963.69
2016-10-24T07:04:00.151Z,963.64
2016-10-24T07:05:00.114Z,963.67
2016-10-24T07:06:00.080Z,963.74
2016-10-24T07:07:00.039Z,963.71
2016-10-24T07:08:00.006Z,963.73
2016-10-24T07:08:59.966Z,963.67
2016-10-24T07:09:59.927Z,963.69
2016-10-24T07:10:59.888Z,963.67
2016-10-24T07:11:59.853Z,963.7
2016-10-24T07:12:59.817Z,963.67
2016-10-24T07:13:59.777Z,963.78
2016-10-24T07:14:59.740Z,963.77
2016-10-24T07:15:59.704Z,963.82
2016-10-24T07:16:59.667Z,963.86
2016-10-24T07:17:59.629Z,963.87
2016-10-24T07:18:59.592Z,963.93
2016-10-24T07:19:59.555Z,963.93
2016-10-24T07:20:59.518Z,963.92
2016-10-24T07:21:59.481Z,963.92
2016-10-24T07:22:59.445Z,963.91
2016-10-24T07:23:59.409Z,963.86
2016-10-24T07:24:59.369Z,963.85
2016-10-24T07:25:59.334Z,963.86
2016-10-24T07:26:59.297Z,963.92
2016-10-24T07:27:59.262Z,963.97
2016-10-24T07:28:59.220Z,963.95
2016-10-24T07:29:59.184Z,963.98
2016-10-24T07:30:59.147Z,963.99
2016-10-24T07:31:59.110Z,963.94
2016-10-24T07:32:59.073Z,963.91
2016-10-24T07:33:59.037Z,963.94
2016-10-24T07:34:59.001Z,963.99
2016-10-24T07:35:58.961Z,964.03
2016-10-24T07:36:58.928Z,964.05
2016-10-24T07:37:58.888Z,964.04
2016-10-24T07:38:58.853Z,964.06
2016-10-24T07:39:58.816Z,964.04
2016-10-24T07:40:58.779Z,964.08
2016-10-24T07:41:58.742Z,964.04
2016-10-24T07:42:58.704Z,964.05
2016-10-24T07:43:58.672Z,964.12
2016-10-24T07:44:58.632Z,964.2
2016-10-24T07:45:58.597Z,964.27
2016-10-24T07:46:58.558Z,964.28
2016-10-24T07:47:58.522Z,964.27
2016-10-24T07:48:58.486Z,964.28
2016-10-24T07:49:58.449Z,964.3
2016-10-24T07:50:58.411Z,964.37
2016-10-24T07:51:58.374Z,964.46
2016-10-24T07:52:58.338Z,964.53
2016-10-24T07:53:58.302Z,964.53
2016-10-24T07:54:58.264Z,964.5
2016-10-24T07:55:58.229Z,964.46
2016-10-24T07:56:58.194Z,964.48
2016-10-24T07:57:58.155Z,964.52
2016-10-24T07:58:58.118Z,964.55
2016-10-24T07:59:58.082Z,964.57
2016-10-24T08:00:58.054Z,964.64
2016-10-24T08:01:58.010Z,964.56
2016-10-24T08:02:57.973Z,964.5
2016-10-24T08:03:57.937Z,964.46
2016-10-24T08:04:57.899Z,964.6
2016-10-24T08:05:57.863Z,964.67
2016-10-24T08:06:57.826Z,964.75
2016-10-24T08:07:57.790Z,964.75
2016-10-24T08:08:57.753Z,964.71
2016-10-24T08:09:57.716Z,964.67
2016-10-24T08:10:57.681Z,964.63
2016-10-24T08:11:57.645Z,964.68
2016-10-24T08:12:57.608Z,964.63
2016-10-24T08:13:57.576Z,964.6
2016-10-24T08:14:57.536Z,964.62
2016-10-24T08:15:57.497Z,964.61
2016-10-24T08:16:57.463Z,964.63
2016-10-24T08:17:57.425Z,964.6
2016-10-24T08:18:57.390Z,964.61
2016-10-24T08:19:57.352Z,964.58
2016-10-24T08:20:57.317Z,964.5
2016-10-24T08:21:57.280Z,964.46
2016-10-24T08:22:57.245Z,964.48
2016-10-24T08:23:57.208Z,964.53
2016-10-24T08:24:57.174Z,964.57
2016-10-24T08:25:57.137Z,964.62
2016-10-24T08:26:57.103Z,964.66
2016-10-24T08:27:57.065Z,964.63
2016-10-24T08:28:57.029Z,964.63
2016-10-24T08:29:56.992Z,964.67
2016-10-24T08:30:56.955Z,964.61
2016-10-24T08:31:56.920Z,964.63
2016-10-24T08:32:56.885Z,964.64
2016-10-24T08:33:56.848Z,964.6
2016-10-24T08:34:56.811Z,964.59
2016-10-24T08:35:56.777Z,964.68
2016-10-24T08:36:56.740Z,964.67
2016-10-24T08:37:56.704Z,964.71
2016-10-24T08:38:56.669Z,964.7
2016-10-24T08:39:56.632Z,964.76
2016-10-24T08:40:56.597Z,964.73
2016-10-24T08:41:56.560Z,964.74
2016-10-24T08:42:56.525Z,964.6
2016-10-24T08:43:56.490Z,964.47
2016-10-24T08:44:56.453Z,964.41
2016-10-24T08:45:56.416Z,964.49
2016-10-24T08:46:56.381Z,964.51
2016-10-24T08:47:56.346Z,964.51
2016-10-24T08:48:56.309Z,964.5
2016-10-24T08:49:56.275Z,964.44
2016-10-24T08:50:56.238Z,964.46
2016-10-24T08:51:56.205Z,964.43
2016-10-24T08:52:56.166Z,964.45
2016-10-24T08:53:56.132Z,964.42
2016-10-24T08:54:56.096Z,964.47
2016-10-24T08:55:56.059Z,964.43
2016-10-24T08:56:56.029Z,964.46
2016-10-24T08:57:55.989Z,964.49
2016-10-24T08:58:55.954Z,964.47
2016-10-24T08:59:55.917Z,964.5
2016-10-24T09:00:55.883Z,964.57
2016-10-24T09:01:55.848Z,964.55
2016-10-24T09:02:55.812Z,964.59
2016-10-24T09:03:55.775Z,964.56
2016-10-24T09:04:55.739Z,964.53
2016-10-24T09:05:55.706Z,964.43
2016-10-24T09:06:55.674Z,964.37
2016-10-24T09:07:55.637Z,964.4
2016-10-24T09:08:55.599Z,964.41
2016-10-24T09:09:55.567Z,964.48
2016-10-24T09:10:55.528Z,964.53
2016-10-24T09:11:55.495Z,964.55
2016-10-24T09:12:55.458Z,964.52
2016-10-24T09:13:55.423Z,964.54
2016-10-24T09:14:55.386Z,964.56
2016-10-24T09:15:55.352Z,964.6
2016-10-24T09:16:55.317Z,964.68
2016-10-24T09:17:55.281Z,964.66
2016-10-24T09:18:55.245Z,964.64
2016-10-24T09:19:55.212Z,964.63
2016-10-24T09:20:55.177Z,964.7
2016-10-24T09:21:55.143Z,964.72
2016-10-24T09:22:55.108Z,964.62
2016-10-24T09:23:55.070Z,964.56
2016-10-24T09:24:55.034Z,964.48
2016-10-24T09:25:55.008Z,964.49
2016-10-24T09:26:54.963Z,964.51
2016-10-24T09:27:54.929Z,964.51
2016-10-24T09:28:54.893Z,964.48
2016-10-24T09:29:54.858Z,964.46
2016-10-24T09:30:54.824Z,964.49
2016-10-24T09:31:54.788Z,964.48
2016-10-24T09:32:54.754Z,964.5
2016-10-24T09:33:54.717Z,964.48
2016-10-24T09:34:54.683Z,964.41
2016-10-24T09:35:54.646Z,964.35
2016-10-24T09:36:54.613Z,964.32
2016-10-24T09:37:54.578Z,964.32
2016-10-24T09:38:54.543Z,964.36
2016-10-24T09:39:54.504Z,964.45
2016-10-24T09:40:54.471Z,964.4
2016-10-24T09:41:54.436Z,964.36
2016-10-24T09:42:54.406Z,964.33
2016-10-24T09:43:54.365Z,964.35
2016-10-24T09:44:54.328Z,964.33
2016-10-24T09:45:54.298Z,964.37
2016-10-24T09:46:54.261Z,964.39
2016-10-24T09:47:54.224Z,964.36
2016-10-24T09:48:54.189Z,964.31
2016-10-24T09:49:54.154Z,964.3
2016-10-24T09:50:54.118Z,964.25
2016-10-24T09:51:54.082Z,964.31
2016-10-24T09:52:54.046Z,964.36
2016-10-24T09:53:54.012Z,964.4
2016-10-24T09:54:53.976Z,964.37
2016-10-24T09:55:53.940Z,964.23
2016-10-24T09:56:53.904Z,964.11
2016-10-24T09:57:53.871Z,964.15
2016-10-24T09:58:53.834Z,964.24
2016-10-24T09:59:53.798Z,964.29
2016-10-24T10:00:53.763Z,964.28
2016-10-24T10:01:53.727Z,964.37
2016-10-24T10:02:53.692Z,964.36
2016-10-24T10:03:53.657Z,964.37
2016-10-24T10:04:53.628Z,964.41
2016-10-24T10:05:53.588Z,964.33
2016-10-24T10:06:53.551Z,964.29
2016-10-24T10:07:53.519Z,964.28
2016-10-24T10:08:53.484Z,964.28
2016-10-24T10:09:53.449Z,964.28
2016-10-24T10:10:53.413Z,964.26
2016-10-24T10:11:53.381Z,964.21
2016-10-24T10:12:53.346Z,964.18
2016-10-24T10:13:53.312Z,964.17
2016-10-24T10:14:53.278Z,964.12
2016-10-24T10:15:53.243Z,964.12
2016-10-24T10:16:53.209Z,964.17
2016-10-24T10:17:53.175Z,964.2
2016-10-24T10:18:53.142Z,964.15
2016-10-24T10:19:53.110Z,964.12
2016-10-24T10:20:53.074Z,964.04
2016-10-24T10:21:53.041Z,963.93
2016-10-24T10:22:53.007Z,963.85
2016-10-24T10:23:52.975Z,963.99
2016-10-24T10:24:52.941Z,964.15
2016-10-24T10:25:52.905Z,964.23
2016-10-24T10:26:52.874Z,964.23
2016-10-24T10:27:52.839Z,964.18
2016-10-24T10:28:52.807Z,964.02
2016-10-24T10:29:52.773Z,964.02
2016-10-24T10:30:52.742Z,964.07
2016-10-24T10:31:52.708Z,964.11
2016-10-24T10:32:52.678Z,964.12
2016-10-24T10:33:52.644Z,964.21
2016-10-24T10:34:52.612Z,964.2
2016-10-24T10:35:52.581Z,964.04
2016-10-24T10:36:52.547Z,964.02
2016-10-24T10:37:52.517Z,964.03
2016-10-24T10:38:52.483Z,964.08
2016-10-24T10:39:52.451Z,964.23
2016-10-24T10:40:52.424Z,964.31
2016-10-24T10:41:52.394Z,964.23
2016-10-24T10:42:52.360Z,964.17
2016-10-24T10:43:52.329Z,964.08
2016-10-24T10:44:52.299Z,964.08
2016-10-24T10:45:52.271Z,964.05
2016-10-24T10:46:52.235Z,964.04
2016-10-24T10:47:52.206Z,964.07
2016-10-24T10:48:52.176Z,964.09
2016-10-24T10:49:52.144Z,964.09
2016-10-24T10:50:52.115Z,964.06
2016-10-24T10:51:52.085Z,964
2016-10-24T10:52:52.054Z,964
2016-10-24T10:53:52.024Z,964.03
2016-10-24T10:54:51.995Z,964.08
2016-10-24T10:55:51.964Z,964.05
2016-10-24T10:56:51.935Z,964.06
2016-10-24T10:57:51.906Z,964.03
2016-10-24T10:58:51.897Z,964.04
2016-10-24T10:59:51.844Z,963.99
2016-10-24T11:00:51.816Z,963.9
2016-10-24T11:01:51.784Z,963.95
2016-10-24T11:02:51.753Z,963.82
2016-10-24T11:03:51.723Z,963.83
2016-10-24T11:04:51.693Z,963.89
2016-10-24T11:05:51.663Z,963.95
2016-10-24T11:06:51.635Z,963.9
2016-10-24T11:07:51.603Z,963.98
2016-10-24T11:08:51.573Z,963.91
2016-10-24T11:09:51.542Z,963.89
2016-10-24T11:10:51.513Z,963.92
2016-10-24T11:11:51.481Z,963.85
2016-10-24T11:12:51.452Z,963.89
2016-10-24T11:13:51.423Z,963.89
2016-10-24T11:14:51.392Z,963.93
2016-10-24T11:15:51.363Z,963.97
2016-10-24T11:16:51.333Z,963.95
2016-10-24T11:17:51.302Z,963.91
2016-10-24T11:18:51.272Z,963.8
2016-10-24T11:19:51.243Z,963.75
2016-10-24T11:20:51.211Z,963.7
2016-10-24T11:21:51.182Z,963.64
2016-10-24T11:22:51.154Z,963.67
2016-10-24T11:23:51.124Z,963.77
2016-10-24T11:24:51.095Z,963.83
2016-10-24T11:25:51.063Z,963.85
2016-10-24T11:26:51.034Z,963.73
2016-10-24T11:27:51.003Z,963.68
2016-10-24T11:28:50.973Z,963.68
2016-10-24T11:29:50.943Z,963.64
2016-10-24T11:30:50.913Z,963.62
2016-10-24T11:31:50.883Z,963.61
2016-10-24T11:32:50.854Z,963.68
2016-10-24T11:33:50.823Z,963.73
2016-10-24T11:34:50.794Z,963.73
2016-10-24T11:35:50.764Z,963.71
2016-10-24T11:36:50.734Z,963.66
2016-10-24T11:37:50.703Z,963.67
2016-10-24T11:38:50.675Z,963.64
2016-10-24T11:39:50.646Z,963.62
2016-10-24T11:40:50.613Z,963.64
2016-10-24T11:41:50.583Z,963.68
2016-10-24T11:42:50.555Z,963.77
2016-10-24T11:43:50.525Z,963.8
2016-10-24T11:44:50.494Z,963.77
2016-10-24T11:45:50.464Z,963.64
2016-10-24T11:46:50.435Z,963.51
2016-10-24T11:47:50.403Z,963.48
2016-10-24T11:48:50.375Z,963.44
2016-10-24T11:49:50.346Z,963.49
2016-10-24T11:50:50.315Z,963.41
2016-10-24T11:51:50.285Z,963.42
2016-10-24T11:52:50.255Z,963.35
2016-10-24T11:53:50.226Z,963.28
2016-10-24T11:54:50.195Z,963.32
2016-10-24T11:55:50.164Z,963.32
2016-10-24T11:56:50.133Z,963.29
2016-10-24T11:57:50.104Z,963.34
2016-10-24T11:58:50.073Z,963.36
2016-10-24T11:59:50.042Z,963.3
2016-10-24T12:00:50.013Z,963.22
2016-10-24T12:01:49.983Z,963.23
2016-10-24T12:02:49.951Z,963.12
2016-10-24T12:03:49.923Z,963.15
2016-10-24T12:04:49.895Z,963.17
2016-10-24T12:05:49.860Z,963.19
2016-10-24T12:06:49.828Z,963.31
2016-10-24T12:07:49.798Z,963.26
2016-10-24T12:08:49.778Z,963.23
2016-10-24T12:09:49.737Z,963.18
2016-10-24T12:10:49.706Z,963.19
2016-10-24T12:11:49.674Z,963.18
2016-10-24T12:12:49.644Z,963.16
2016-10-24T12:13:49.613Z,963.14
2016-10-24T12:14:49.583Z,963.19
2016-10-24T12:15:49.550Z,963.16
2016-10-24T12:16:49.520Z,963.2
2016-10-24T12:17:49.488Z,963.17
2016-10-24T12:18:49.456Z,963.19
2016-10-24T12:19:49.425Z,963.2
2016-10-24T12:20:49.394Z,963.17
2016-10-24T12:21:49.363Z,963.15
2016-10-24T12:22:49.333Z,963.1
2016-10-24T12:23:49.301Z,963.09
2016-10-24T12:24:49.269Z,963.11
2016-10-24T12:25:49.240Z,963.07
2016-10-24T12:26:49.206Z,963.01
2016-10-24T12:27:49.176Z,962.98
2016-10-24T12:28:49.145Z,962.92
2016-10-24T12:29:49.115Z,962.92
2016-10-24T12:30:49.082Z,962.93